Chamnesstown, Illinois
Current Conditions -  °F | °C
As of 10:52 PM on Monday 20 Oct 2014 (Local Time) from KMDH Reporting Station
Clear Clear  
Wind Chill: 53°   Ceiling: Unl
Heat Index: 53°   Visibility: 10mi
Dew Point: 44°   Wind: 3mph
Humidity: 71%   Direction: 320°NW
Pressure: 30.03"   Gusts: NA
Location:  37.907°N, 89.2086°W
Report Text: KMDH 210352Z AUTO 32003KT 10SM CLR 12/07 A3003 RMK AO2 SLP167 T01170067
Loading
Personal Weather Stations






























Interactive Weather Map
Tropical Storm Tracking
New forecast layout! Learn more

10-Day Weather Forecast

Advertisements
Track Severe Weather on mobile